Time,TemperatureF,DewpointF,PressureIn,WindDirection,WindDirectionDegrees,WindSpeedMPH,WindSpeedGustMPH,Humidity,HourlyPrecipIn,Conditions,Clouds,dailyrainin,SolarRadiationWatts/m^2,SoftwareType,DateUTC
2013-07-17 00:00:00,66.2,61.9,30.09,ENE,61,9.0,9.0,86,0.00,,CLR,0.00,0.00,VWS V14.00,2013-07-17 05:00:00,
2013-07-17 00:05:00,66.2,61.9,30.09,NE,54,5.0,11.0,86,0.00,,CLR,0.00,0.00,VWS V14.00,2013-07-17 05:05:00,
2013-07-17 00:10:00,66.2,62.2,30.09,NE,50,3.0,11.0,87,0.00,,CLR,0.00,0.00,VWS V14.00,2013-07-17 05:10:00,
2013-07-17 00:15:00,66.3,62.3,30.10,NE,47,5.0,11.0,87,0.00,,CLR,0.00,0.00,VWS V14.00,2013-07-17 05:15:00,
2013-07-17 00:20:00,66.3,62.3,30.10,NE,40,5.0,11.0,87,0.00,,CLR,0.00,0.00,VWS V14.00,2013-07-17 05:20:00,
2013-07-17 00:25:00,66.3,62.3,30.10,NE,54,5.0,11.0,87,0.00,,CLR,0.00,0.00,VWS V14.00,2013-07-17 05:25:00,
2013-07-17 00:30:00,66.3,62.3,30.10,ENE,57,2.0,9.0,87,0.00,,CLR,0.00,0.00,VWS V14.00,2013-07-17 05:30:00,
2013-07-17 00:35:00,66.3,62.3,30.10,ENE,63,4.0,10.0,87,0.00,,CLR,0.00,0.00,VWS V14.00,2013-07-17 05:35:00,
2013-07-17 00:40:00,66.4,62.4,30.10,ENE,71,7.0,11.0,87,0.00,,CLR,0.00,0.00,VWS V14.00,2013-07-17 05:40:00,
2013-07-17 00:45:00,66.4,62.4,30.09,ENE,75,5.0,11.0,87,0.00,,CLR,0.00,0.00,VWS V14.00,2013-07-17 05:45:00,
2013-07-17 00:50:00,66.3,62.3,30.09,East,98,8.0,11.0,87,0.00,,CLR,0.00,0.00,VWS V14.00,2013-07-17 05:50:00,
2013-07-17 00:56:00,66.4,62.4,30.09,ENE,78,10.0,12.0,87,0.00,,CLR,0.00,0.00,VWS V14.00,2013-07-17 05:56:00,
2013-07-17 01:01:00,66.5,62.2,30.09,ENE,74,4.0,11.0,86,0.00,,CLR,0.00,0.00,VWS V14.00,2013-07-17 06:01:00,
2013-07-17 01:06:00,66.5,62.2,30.09,East,88,8.0,12.0,86,0.00,,CLR,0.00,0.00,VWS V14.00,2013-07-17 06:06:00,
2013-07-17 01:11:00,66.5,62.2,30.10,East,85,7.0,12.0,86,0.00,,CLR,0.00,0.00,VWS V14.00,2013-07-17 06:11:00,
2013-07-17 01:16:00,66.5,61.9,30.10,East,81,1.0,12.0,85,0.00,,CLR,0.00,0.00,VWS V14.00,2013-07-17 06:16:00,
2013-07-17 01:21:00,66.5,61.9,30.10,East,81,2.0,12.0,85,0.00,,CLR,0.00,0.00,VWS V14.00,2013-07-17 06:21:00,
2013-07-17 01:26:00,66.4,61.8,30.10,East,81,5.0,12.0,85,0.00,,CLR,0.00,0.00,VWS V14.00,2013-07-17 06:26:00,
2013-07-17 01:31:00,66.4,61.8,30.10,East,79,5.0,5.0,85,0.00,,CLR,0.00,0.00,VWS V14.00,2013-07-17 06:31:00,
2013-07-17 01:36:00,66.3,61.3,30.10,ENE,77,5.0,8.0,84,0.00,,CLR,0.00,0.00,VWS V14.00,2013-07-17 06:36:00,
2013-07-17 01:41:00,66.2,61.2,30.10,ENE,71,4.0,8.0,84,0.00,,SCT110,0.00,0.00,VWS V14.00,2013-07-17 06:41:00,
2013-07-17 01:46:00,66.0,61.4,30.10,ENE,71,3.0,8.0,85,0.00,,SCT110,0.00,0.00,VWS V14.00,2013-07-17 06:46:00,
2013-07-17 01:51:00,65.9,61.3,30.10,ENE,71,4.0,8.0,85,0.00,,SCT110,0.00,0.00,VWS V14.00,2013-07-17 06:51:00,
2013-07-17 01:56:00,65.8,61.2,30.10,ENE,71,5.0,8.0,85,0.00,,SCT110,0.00,0.00,VWS V14.00,2013-07-17 06:56:00,
2013-07-17 02:01:00,65.8,61.2,30.10,ENE,71,4.0,7.0,85,0.00,,SCT110,0.00,0.00,VWS V14.00,2013-07-17 07:01:00,
2013-07-17 02:06:00,65.7,61.1,30.10,ENE,71,4.0,8.0,85,0.00,,SCT110,0.00,0.00,VWS V14.00,2013-07-17 07:06:00,
2013-07-17 02:11:00,65.6,61.0,30.09,ENE,66,5.0,9.0,85,0.00,,SCT110,0.00,0.00,VWS V14.00,2013-07-17 07:11:00,
2013-07-17 02:16:00,65.5,60.9,30.09,ENE,65,8.0,9.0,85,0.00,,SCT110,0.00,0.00,VWS V14.00,2013-07-17 07:16:00,
2013-07-17 02:21:00,65.4,61.1,30.09,ENE,63,5.0,10.0,86,0.00,,SCT110,0.00,0.00,VWS V14.00,2013-07-17 07:21:00,
2013-07-17 02:26:00,65.3,61.0,30.09,ENE,64,3.0,10.0,86,0.00,,SCT110,0.00,0.00,VWS V14.00,2013-07-17 07:26:00,
2013-07-17 02:31:00,65.2,60.9,30.09,ENE,64,5.0,9.0,86,0.00,,SCT110,0.00,0.00,VWS V14.00,2013-07-17 07:31:00,
2013-07-17 02:36:00,65.2,61.2,30.09,ENE,62,4.0,9.0,87,0.00,,SCT110,0.00,0.00,VWS V14.00,2013-07-17 07:36:00,
2013-07-17 02:41:00,65.1,61.1,30.09,ENE,61,4.0,9.0,87,0.00,,BKN110,0.00,0.00,VWS V14.00,2013-07-17 07:41:00,
2013-07-17 02:46:00,64.9,61.3,30.09,ENE,60,4.0,9.0,88,0.00,,BKN110,0.00,0.00,VWS V14.00,2013-07-17 07:46:00,
2013-07-17 02:51:00,64.8,61.2,30.09,ENE,61,5.0,9.0,88,0.00,,BKN110,0.00,0.00,VWS V14.00,2013-07-17 07:51:00,
2013-07-17 02:56:00,64.7,61.1,30.09,ENE,59,9.0,11.0,88,0.00,,BKN110,0.00,0.00,VWS V14.00,2013-07-17 07:56:00,
2013-07-17 03:01:00,64.7,61.4,30.09,ENE,61,7.0,11.0,89,0.00,,BKN110,0.00,0.00,VWS V14.00,2013-07-17 08:01:00,
2013-07-17 03:06:00,64.8,61.5,30.09,ENE,61,9.0,12.0,89,0.00,,BKN110,0.00,0.00,VWS V14.00,2013-07-17 08:06:00,
2013-07-17 03:11:00,64.8,61.5,30.09,ENE,63,9.0,12.0,89,0.00,,BKN110,0.00,0.00,VWS V14.00,2013-07-17 08:11:00,
2013-07-17 03:16:00,64.9,61.6,30.08,ENE,61,10.0,14.0,89,0.00,,BKN110,0.00,0.00,VWS V14.00,2013-07-17 08:16:00,
2013-07-17 03:21:00,64.9,61.6,30.08,ENE,71,5.0,14.0,89,0.00,,BKN110,0.00,0.00,VWS V14.00,2013-07-17 08:21:00,
2013-07-17 03:26:00,64.9,61.6,30.08,ENE,65,11.0,15.0,89,0.00,,BKN110,0.00,0.00,VWS V14.00,2013-07-17 08:26:00,
2013-07-17 03:32:00,64.8,61.5,30.08,ENE,71,11.0,12.0,89,0.00,,BKN110,0.00,0.00,VWS V14.00,2013-07-17 08:32:00,
2013-07-17 03:37:00,64.7,61.4,30.08,ENE,76,10.0,15.0,89,0.00,,BKN110,0.00,0.00,VWS V14.00,2013-07-17 08:37:00,
2013-07-17 03:42:00,64.7,61.7,30.07,East,80,8.0,15.0,90,0.00,,CLR,0.00,0.00,VWS V14.00,2013-07-17 08:42:00,
2013-07-17 03:47:00,64.7,61.7,30.08,ENE,76,10.0,15.0,90,0.00,,CLR,0.00,0.00,VWS V14.00,2013-07-17 08:47:00,
2013-07-17 03:52:00,64.7,61.7,30.08,East,85,6.0,15.0,90,0.00,,CLR,0.00,0.00,VWS V14.00,2013-07-17 08:52:00,
2013-07-17 03:57:00,64.7,61.7,30.08,ENE,77,8.0,15.0,90,0.00,,CLR,0.00,0.00,VWS V14.00,2013-07-17 08:57:00,
2013-07-17 04:02:00,64.8,61.8,30.08,ENE,71,9.0,12.0,90,0.00,,CLR,0.00,0.00,VWS V14.00,2013-07-17 09:02:00,
2013-07-17 04:07:00,64.8,61.8,30.08,ENE,69,5.0,12.0,90,0.00,,CLR,0.00,0.00,VWS V14.00,2013-07-17 09:07:00,
2013-07-17 04:12:00,64.8,61.8,30.08,ENE,63,7.0,14.0,90,0.00,,CLR,0.00,0.00,VWS V14.00,2013-07-17 09:12:00,
2013-07-17 04:17:00,64.7,61.7,30.08,ENE,65,7.0,14.0,90,0.00,,CLR,0.00,0.00,VWS V14.00,2013-07-17 09:17:00,
2013-07-17 04:22:00,64.7,61.7,30.08,ENE,71,7.0,14.0,90,0.00,,CLR,0.00,0.00,VWS V14.00,2013-07-17 09:22:00,
2013-07-17 04:27:00,64.6,61.6,30.08,NE,53,9.0,14.0,90,0.00,,CLR,0.00,0.00,VWS V14.00,2013-07-17 09:27:00,
2013-07-17 04:32:00,64.6,61.6,30.08,ENE,70,9.0,12.0,90,0.00,,CLR,0.00,0.00,VWS V14.00,2013-07-17 09:32:00,
2013-07-17 04:37:00,64.5,61.5,30.09,ENE,71,8.0,13.0,90,0.00,,CLR,0.00,0.00,VWS V14.00,2013-07-17 09:37:00,
2013-07-17 04:42:00,64.4,61.4,30.08,ENE,66,12.0,13.0,90,0.00,,CLR,0.00,0.00,VWS V14.00,2013-07-17 09:42:00,
2013-07-17 04:47:00,64.4,61.4,30.08,ENE,77,7.0,13.0,90,0.00,,CLR,0.00,0.00,VWS V14.00,2013-07-17 09:47:00,
2013-07-17 04:52:00,64.3,61.3,30.08,ENE,69,11.0,16.0,90,0.00,,CLR,0.00,0.00,VWS V14.00,2013-07-17 09:52:00,
2013-07-17 04:57:00,64.4,61.4,30.08,ENE,72,9.0,16.0,90,0.00,,CLR,0.00,0.00,VWS V14.00,2013-07-17 09:57:00,
2013-07-17 05:02:00,64.4,61.4,30.09,East,90,15.0,15.0,90,0.00,,CLR,0.00,0.00,VWS V14.00,2013-07-17 10:02:00,
2013-07-17 05:07:00,64.4,61.1,30.08,ENE,65,13.0,16.0,89,0.00,,CLR,0.00,0.00,VWS V14.00,2013-07-17 10:07:00,
2013-07-17 05:12:00,64.5,61.2,30.08,ENE,78,11.0,16.0,89,0.00,,CLR,0.00,0.00,VWS V14.00,2013-07-17 10:12:00,
2013-07-17 05:17:00,64.4,61.1,30.08,East,80,15.0,16.0,89,0.00,,CLR,0.00,0.00,VWS V14.00,2013-07-17 10:17:00,
2013-07-17 05:22:00,64.4,61.1,30.08,East,90,7.0,16.0,89,0.00,,CLR,0.00,0.00,VWS V14.00,2013-07-17 10:22:00,
2013-07-17 05:27:00,64.4,60.8,30.08,East,88,11.0,16.0,88,0.00,,CLR,0.00,0.00,VWS V14.00,2013-07-17 10:27:00,
2013-07-17 05:32:00,64.3,60.7,30.08,East,80,13.0,18.0,88,0.00,,CLR,0.00,0.00,VWS V14.00,2013-07-17 10:32:00,
2013-07-17 05:37:00,64.3,60.7,30.08,East,80,13.0,18.0,88,0.00,,CLR,0.00,0.00,VWS V14.00,2013-07-17 10:37:00,
2013-07-17 05:42:00,64.2,60.6,30.08,East,81,13.0,18.0,88,0.00,,CLR,0.00,0.00,VWS V14.00,2013-07-17 10:42:00,
2013-07-17 05:47:00,64.2,60.6,30.08,East,86,9.0,18.0,88,0.00,,CLR,0.00,0.00,VWS V14.00,2013-07-17 10:47:00,
2013-07-17 05:52:00,64.1,60.5,30.08,East,98,11.0,18.0,88,0.00,,CLR,0.00,0.00,VWS V14.00,2013-07-17 10:52:00,
2013-07-17 05:57:00,64.0,60.4,30.09,East,88,6.0,18.0,88,0.00,,CLR,0.00,0.00,VWS V14.00,2013-07-17 10:57:00,
2013-07-17 06:03:00,63.9,60.3,30.09,ENE,76,9.0,14.0,88,0.00,,CLR,0.00,0.00,VWS V14.00,2013-07-17 11:03:00,
2013-07-17 06:08:00,63.8,60.2,30.09,East,83,9.0,15.0,88,0.00,,CLR,0.00,5.00,VWS V14.00,2013-07-17 11:08:00,
2013-07-17 06:13:00,63.7,60.1,30.09,ESE,102,11.0,16.0,88,0.00,,CLR,0.00,7.00,VWS V14.00,2013-07-17 11:13:00,
2013-07-17 06:18:00,63.7,60.1,30.09,East,81,10.0,16.0,88,0.00,,CLR,0.00,11.00,VWS V14.00,2013-07-17 11:18:00,
2013-07-17 06:23:00,63.7,60.1,30.09,East,84,10.0,16.0,88,0.00,,CLR,0.00,12.00,VWS V14.00,2013-07-17 11:23:00,
2013-07-17 06:28:00,63.7,60.1,30.09,ENE,77,13.0,17.0,88,0.00,,CLR,0.00,16.00,VWS V14.00,2013-07-17 11:28:00,
2013-07-17 06:33:00,63.7,59.8,30.09,East,82,10.0,15.0,87,0.00,,CLR,0.00,18.00,VWS V14.00,2013-07-17 11:33:00,
2013-07-17 06:38:00,63.6,59.7,30.09,East,82,9.0,16.0,87,0.00,,CLR,0.00,21.00,VWS V14.00,2013-07-17 11:38:00,
2013-07-17 06:43:00,63.7,59.8,30.10,East,87,13.0,16.0,87,0.00,,CLR,0.00,23.00,VWS V14.00,2013-07-17 11:43:00,
2013-07-17 06:48:00,63.7,59.8,30.09,East,96,8.0,16.0,87,0.00,,CLR,0.00,25.00,VWS V14.00,2013-07-17 11:48:00,
2013-07-17 06:53:00,63.8,59.5,30.09,East,79,15.0,17.0,86,0.00,,CLR,0.00,26.00,VWS V14.00,2013-07-17 11:53:00,
2013-07-17 06:58:00,63.9,59.6,30.09,East,90,10.0,17.0,86,0.00,,CLR,0.00,30.00,VWS V14.00,2013-07-17 11:58:00,
2013-07-17 07:03:00,64.0,59.4,30.09,East,98,14.0,15.0,85,0.00,,CLR,0.00,33.00,VWS V14.00,2013-07-17 12:03:00,
2013-07-17 07:08:00,64.1,59.2,30.09,East,90,8.0,16.0,84,0.00,,CLR,0.00,35.00,VWS V14.00,2013-07-17 12:08:00,
2013-07-17 07:13:00,64.2,59.3,30.09,ESE,103,11.0,16.0,84,0.00,,CLR,0.00,37.00,VWS V14.00,2013-07-17 12:13:00,
2013-07-17 07:18:00,64.3,59.0,30.09,East,96,9.0,17.0,83,0.00,,CLR,0.00,39.00,VWS V14.00,2013-07-17 12:18:00,
2013-07-17 07:23:00,64.5,58.9,30.09,East,95,13.0,17.0,82,0.00,,CLR,0.00,40.00,VWS V14.00,2013-07-17 12:23:00,
2013-07-17 07:28:00,64.6,59.0,30.09,East,81,13.0,19.0,82,0.00,,CLR,0.00,42.00,VWS V14.00,2013-07-17 12:28:00,
2013-07-17 07:33:00,64.8,58.8,30.10,East,86,11.0,16.0,81,0.00,,CLR,0.00,46.00,VWS V14.00,2013-07-17 12:33:00,
2013-07-17 07:38:00,64.9,58.9,30.09,ESE,103,11.0,17.0,81,0.00,,CLR,0.00,47.00,VWS V14.00,2013-07-17 12:38:00,
2013-07-17 07:43:00,65.1,58.8,30.09,East,101,9.0,17.0,80,0.00,,CLR,0.00,93.00,VWS V14.00,2013-07-17 12:43:00,
2013-07-17 07:48:00,65.2,58.9,30.10,ESE,107,11.0,17.0,80,0.00,,CLR,0.00,176.00,VWS V14.00,2013-07-17 12:48:00,
2013-07-17 07:53:00,65.5,58.8,30.10,East,98,10.0,17.0,79,0.00,,CLR,0.00,190.00,VWS V14.00,2013-07-17 12:53:00,
2013-07-17 07:58:00,65.9,59.2,30.10,East,96,15.0,18.0,79,0.00,,CLR,0.00,204.00,VWS V14.00,2013-07-17 12:58:00,
2013-07-17 08:03:00,66.1,59.0,30.10,ESE,105,12.0,17.0,78,0.00,,CLR,0.00,216.00,VWS V14.00,2013-07-17 13:03:00,
2013-07-17 08:08:00,66.5,59.1,30.10,East,86,13.0,17.0,77,0.00,,CLR,0.00,230.00,VWS V14.00,2013-07-17 13:08:00,
2013-07-17 08:13:00,66.6,59.2,30.10,East,91,10.0,17.0,77,0.00,,CLR,0.00,246.00,VWS V14.00,2013-07-17 13:13:00,
2013-07-17 08:18:00,66.9,59.5,30.10,ESE,112,10.0,17.0,77,0.00,,CLR,0.00,258.00,VWS V14.00,2013-07-17 13:18:00,
2013-07-17 08:23:00,67.4,60.0,30.10,East,100,13.0,17.0,77,0.00,,CLR,0.00,274.00,VWS V14.00,2013-07-17 13:23:00,
2013-07-17 08:29:00,67.5,59.7,30.11,East,94,16.0,17.0,76,0.00,,CLR,0.00,290.00,VWS V14.00,2013-07-17 13:29:00,
2013-07-17 08:34:00,67.6,59.8,30.11,ESE,102,15.0,19.0,76,0.00,,CLR,0.00,304.00,VWS V14.00,2013-07-17 13:34:00,
2013-07-17 08:39:00,67.6,60.1,30.11,ESE,107,12.0,19.0,77,0.00,,CLR,0.00,288.00,VWS V14.00,2013-07-17 13:39:00,
2013-07-17 08:44:00,67.7,60.2,30.11,East,86,17.0,19.0,77,0.00,,CLR,0.00,214.00,VWS V14.00,2013-07-17 13:44:00,
2013-07-17 08:49:00,67.9,60.4,30.11,ENE,77,9.0,19.0,77,0.00,,CLR,0.00,190.00,VWS V14.00,2013-07-17 13:49:00,
2013-07-17 08:54:00,68.1,60.6,30.10,ESE,102,10.0,19.0,77,0.00,,CLR,0.00,272.00,VWS V14.00,2013-07-17 13:54:00,
2013-07-17 08:59:00,68.7,61.2,30.10,East,84,10.0,19.0,77,0.00,,CLR,0.00,360.00,VWS V14.00,2013-07-17 13:59:00,
2013-07-17 09:04:00,69.0,61.1,30.10,East,96,11.0,17.0,76,0.00,,CLR,0.00,390.00,VWS V14.00,2013-07-17 14:04:00,
2013-07-17 09:09:00,69.3,61.4,30.11,ESE,104,12.0,17.0,76,0.00,,CLR,0.00,403.00,VWS V14.00,2013-07-17 14:09:00,
2013-07-17 09:14:00,69.5,61.6,30.11,East,84,11.0,17.0,76,0.00,,CLR,0.00,417.00,VWS V14.00,2013-07-17 14:14:00,
2013-07-17 09:19:00,70.3,62.4,30.10,ENE,66,13.0,17.0,76,0.00,,CLR,0.00,434.00,VWS V14.00,2013-07-17 14:19:00,
2013-07-17 09:24:00,70.6,62.3,30.10,East,82,13.0,17.0,75,0.00,,CLR,0.00,448.00,VWS V14.00,2013-07-17 14:24:00,
2013-07-17 09:29:00,70.8,62.5,30.10,East,93,14.0,17.0,75,0.00,,CLR,0.00,461.00,VWS V14.00,2013-07-17 14:29:00,
2013-07-17 09:34:00,71.2,62.9,30.10,East,96,10.0,15.0,75,0.00,,CLR,0.00,476.00,VWS V14.00,2013-07-17 14:34:00,
2013-07-17 09:39:00,71.5,63.2,30.10,East,95,14.0,15.0,75,0.00,,CLR,0.00,489.00,VWS V14.00,2013-07-17 14:39:00,
2013-07-17 09:44:00,71.7,63.7,30.10,East,94,13.0,16.0,76,0.00,,CLR,0.00,503.00,VWS V14.00,2013-07-17 14:44:00,
2013-07-17 09:49:00,72.0,64.0,30.10,East,91,10.0,16.0,76,0.00,,CLR,0.00,517.00,VWS V14.00,2013-07-17 14:49:00,
2013-07-17 09:54:00,72.5,63.8,30.09,ESE,108,12.0,19.0,74,0.00,,CLR,0.00,533.00,VWS V14.00,2013-07-17 14:54:00,
2013-07-17 09:59:00,72.6,64.2,30.09,ESE,107,14.0,19.0,75,0.00,,CLR,0.00,547.00,VWS V14.00,2013-07-17 14:59:00,
2013-07-17 10:04:00,72.8,64.4,30.09,ESE,102,13.0,17.0,75,0.00,,CLR,0.00,559.00,VWS V14.00,2013-07-17 15:04:00,
2013-07-17 10:09:00,73.2,64.0,30.09,East,92,15.0,17.0,73,0.00,,CLR,0.00,570.00,VWS V14.00,2013-07-17 15:09:00,
2013-07-17 10:14:00,73.5,64.3,30.09,East,94,15.0,17.0,73,0.00,,CLR,0.00,582.00,VWS V14.00,2013-07-17 15:14:00,
2013-07-17 10:19:00,73.3,64.5,30.09,East,97,10.0,17.0,74,0.00,,CLR,0.00,594.00,VWS V14.00,2013-07-17 15:19:00,
2013-07-17 10:24:00,74.0,64.8,30.09,ESE,106,11.0,17.0,73,0.00,,CLR,0.00,606.00,VWS V14.00,2013-07-17 15:24:00,
2013-07-17 10:29:00,74.2,65.0,30.09,SE,128,9.0,17.0,73,0.00,,CLR,0.00,621.00,VWS V14.00,2013-07-17 15:29:00,
2013-07-17 10:34:00,74.3,65.5,30.09,ESE,110,14.0,16.0,74,0.00,,CLR,0.00,631.00,VWS V14.00,2013-07-17 15:34:00,
2013-07-17 10:39:00,75.1,65.5,30.09,ESE,109,11.0,16.0,72,0.00,,CLR,0.00,642.00,VWS V14.00,2013-07-17 15:39:00,
2013-07-17 10:44:00,75.0,65.4,30.09,East,86,11.0,16.0,72,0.00,,CLR,0.00,656.00,VWS V14.00,2013-07-17 15:44:00,
2013-07-17 10:49:00,75.4,66.2,30.09,ESE,113,9.0,16.0,73,0.00,,CLR,0.00,664.00,VWS V14.00,2013-07-17 15:49:00,
2013-07-17 10:54:00,76.2,66.5,30.08,ESE,107,5.0,16.0,72,0.00,,CLR,0.00,679.00,VWS V14.00,2013-07-17 15:54:00,
2013-07-17 10:59:00,76.3,65.8,30.08,East,86,13.0,16.0,70,0.00,,CLR,0.00,691.00,VWS V14.00,2013-07-17 15:59:00,
2013-07-17 11:05:00,76.3,65.8,30.08,ENE,63,10.0,14.0,70,0.00,,CLR,0.00,698.00,VWS V14.00,2013-07-17 16:05:00,
2013-07-17 11:10:00,76.9,66.4,30.08,East,101,11.0,15.0,70,0.00,,CLR,0.00,710.00,VWS V14.00,2013-07-17 16:10:00,
2013-07-17 11:15:00,77.3,66.3,30.08,East,84,10.0,15.0,69,0.00,,CLR,0.00,719.00,VWS V14.00,2013-07-17 16:15:00,
2013-07-17 11:20:00,77.2,65.8,30.08,East,86,8.0,15.0,68,0.00,,CLR,0.00,729.00,VWS V14.00,2013-07-17 16:20:00,
2013-07-17 11:25:00,77.1,65.3,30.08,East,90,15.0,15.0,67,0.00,,CLR,0.00,738.00,VWS V14.00,2013-07-17 16:25:00,
2013-07-17 11:30:00,77.1,66.2,30.08,ESE,108,13.0,13.0,69,0.00,,CLR,0.00,738.00,VWS V14.00,2013-07-17 16:30:00,
2013-07-17 11:35:00,77.9,66.5,30.08,ENE,77,7.0,13.0,68,0.00,,CLR,0.00,758.00,VWS V14.00,2013-07-17 16:35:00,
2013-07-17 11:40:00,78.3,66.4,30.08,ENE,78,11.0,14.0,67,0.00,,CLR,0.00,765.00,VWS V14.00,2013-07-17 16:40:00,
2013-07-17 11:45:00,78.8,66.9,30.08,ESE,110,12.0,15.0,67,0.00,,CLR,0.00,773.00,VWS V14.00,2013-07-17 16:45:00,
2013-07-17 11:50:00,79.0,66.7,30.07,ENE,76,8.0,15.0,66,0.00,,CLR,0.00,782.00,VWS V14.00,2013-07-17 16:50:00,
2013-07-17 11:55:00,79.0,66.7,30.07,East,90,9.0,15.0,66,0.00,,CLR,0.00,789.00,VWS V14.00,2013-07-17 16:55:00,
2013-07-17 12:00:00,79.3,66.5,30.07,ENE,76,9.0,11.0,65,0.00,,CLR,0.00,798.00,VWS V14.00,2013-07-17 17:00:00,
2013-07-17 12:05:00,79.8,67.0,30.07,ENE,73,11.0,17.0,65,0.00,,CLR,0.00,803.00,VWS V14.00,2013-07-17 17:05:00,
2013-07-17 12:10:00,79.8,67.4,30.07,ESE,103,10.0,17.0,66,0.00,,CLR,0.00,814.00,VWS V14.00,2013-07-17 17:10:00,
2013-07-17 12:15:00,80.8,67.5,30.07,ENE,76,7.0,17.0,64,0.00,,CLR,0.00,821.00,VWS V14.00,2013-07-17 17:15:00,
2013-07-17 12:20:00,81.1,67.3,30.07,ENE,76,13.0,17.0,63,0.00,,CLR,0.00,830.00,VWS V14.00,2013-07-17 17:20:00,
2013-07-17 12:25:00,81.2,66.9,30.07,ESE,113,5.0,17.0,62,0.00,,CLR,0.00,830.00,VWS V14.00,2013-07-17 17:25:00,
2013-07-17 12:30:00,81.4,67.6,30.07,SE,126,10.0,11.0,63,0.00,,CLR,0.00,835.00,VWS V14.00,2013-07-17 17:30:00,
2013-07-17 12:35:00,81.4,67.6,30.07,ESE,105,14.0,17.0,63,0.00,,CLR,0.00,842.00,VWS V14.00,2013-07-17 17:35:00,
2013-07-17 12:40:00,81.2,67.4,30.07,East,100,13.0,17.0,63,0.00,,CLR,0.00,847.00,VWS V14.00,2013-07-17 17:40:00,
2013-07-17 12:45:00,81.3,67.5,30.07,ESE,103,9.0,17.0,63,0.00,,CLR,0.00,854.00,VWS V14.00,2013-07-17 17:45:00,
2013-07-17 12:50:00,81.5,67.7,30.07,ESE,119,10.0,19.0,63,0.00,,CLR,0.00,865.00,VWS V14.00,2013-07-17 17:50:00,
2013-07-17 12:55:00,82.2,67.9,30.06,East,98,13.0,19.0,62,0.00,,CLR,0.00,877.00,VWS V14.00,2013-07-17 17:55:00,
2013-07-17 13:01:00,82.0,68.6,30.06,East,87,9.0,13.0,64,0.00,,CLR,0.00,860.00,VWS V14.00,2013-07-17 18:01:00,
2013-07-17 13:06:00,82.4,68.6,30.06,East,92,13.0,16.0,63,0.00,,CLR,0.00,865.00,VWS V14.00,2013-07-17 18:06:00,
2013-07-17 13:11:00,83.1,69.2,30.06,ESE,111,14.0,19.0,63,0.00,,CLR,0.00,881.00,VWS V14.00,2013-07-17 18:11:00,
2013-07-17 13:16:00,83.5,69.1,30.06,ESE,102,10.0,19.0,62,0.00,,CLR,0.00,777.00,VWS V14.00,2013-07-17 18:16:00,
2013-07-17 13:21:00,83.6,68.7,30.05,East,98,11.0,19.0,61,0.00,,CLR,0.00,877.00,VWS V14.00,2013-07-17 18:21:00,
2013-07-17 13:26:00,84.2,69.3,30.05,ESE,102,10.0,19.0,61,0.00,,CLR,0.00,584.00,VWS V14.00,2013-07-17 18:26:00,
2013-07-17 13:31:00,84.1,68.7,30.05,East,94,17.0,17.0,60,0.00,,CLR,0.00,842.00,VWS V14.00,2013-07-17 18:31:00,
2013-07-17 13:36:00,83.8,69.4,30.05,ESE,105,13.0,22.0,62,0.00,,CLR,0.00,563.00,VWS V14.00,2013-07-17 18:36:00,
2013-07-17 13:41:00,84.3,69.4,30.05,East,99,9.0,22.0,61,0.00,,CLR,0.00,671.00,VWS V14.00,2013-07-17 18:41:00,
2013-07-17 13:46:00,85.0,70.1,30.04,SE,126,7.0,22.0,61,0.00,,CLR,0.00,591.00,VWS V14.00,2013-07-17 18:46:00,
2013-07-17 13:51:00,85.5,69.1,30.04,ESE,110,13.0,22.0,58,0.00,,,0.00,485.00,VWS V14.00,2013-07-17 18:51:00,
2013-07-17 13:56:00,85.7,69.7,30.04,ESE,110,9.0,22.0,59,0.00,,,0.00,842.00,VWS V14.00,2013-07-17 18:56:00,
2013-07-17 14:01:00,85.4,69.0,30.04,ESE,105,10.0,16.0,58,0.00,,,0.00,773.00,VWS V14.00,2013-07-17 19:01:00,
2013-07-17 14:06:00,86.0,69.5,30.04,SE,128,12.0,17.0,58,0.00,,,0.00,935.00,VWS V14.00,2013-07-17 19:06:00,
2013-07-17 14:11:00,86.2,68.2,30.03,SE,124,10.0,17.0,55,0.00,,,0.00,886.00,VWS V14.00,2013-07-17 19:11:00,
2013-07-17 14:16:00,86.5,68.4,30.03,SE,146,9.0,17.0,55,0.00,,,0.00,886.00,VWS V14.00,2013-07-17 19:16:00,
2013-07-17 14:21:00,86.6,68.0,30.03,ESE,113,9.0,19.0,54,0.00,,,0.00,886.00,VWS V14.00,2013-07-17 19:21:00,
2013-07-17 14:26:00,87.0,68.4,30.03,SE,126,11.0,19.0,54,0.00,,,0.00,881.00,VWS V14.00,2013-07-17 19:26:00,
2013-07-17 14:31:00,87.1,68.4,30.03,ENE,71,13.0,16.0,54,0.00,,CLR,0.00,877.00,VWS V14.00,2013-07-17 19:31:00,
2013-07-17 14:36:00,87.1,68.4,30.03,ESE,117,9.0,16.0,54,0.00,,CLR,0.00,882.00,VWS V14.00,2013-07-17 19:36:00,
2013-07-17 14:41:00,87.1,68.4,30.02,ESE,111,17.0,18.0,54,0.00,,CLR,0.00,949.00,VWS V14.00,2013-07-17 19:41:00,
2013-07-17 14:46:00,87.6,68.9,30.02,ESE,112,14.0,18.0,54,0.00,,CLR,0.00,896.00,VWS V14.00,2013-07-17 19:46:00,
2013-07-17 14:51:00,88.3,68.5,30.02,ESE,117,12.0,18.0,52,0.00,,CLR,0.00,874.00,VWS V14.00,2013-07-17 19:51:00,
2013-07-17 14:56:00,88.2,69.5,30.02,SE,142,7.0,18.0,54,0.00,,CLR,0.00,872.00,VWS V14.00,2013-07-17 19:56:00,
2013-07-17 15:02:00,88.5,69.8,30.01,ESE,119,14.0,14.0,54,0.00,,CLR,0.00,872.00,VWS V14.00,2013-07-17 20:02:00,
2013-07-17 15:07:00,88.8,69.5,30.01,East,98,7.0,16.0,53,0.00,,CLR,0.00,911.00,VWS V14.00,2013-07-17 20:07:00,
2013-07-17 15:12:00,88.6,69.8,30.01,SE,129,13.0,16.0,54,0.00,,CLR,0.00,204.00,VWS V14.00,2013-07-17 20:12:00,
2013-07-17 15:17:00,87.7,69.0,30.01,ESE,120,8.0,16.0,54,0.00,,CLR,0.00,942.00,VWS V14.00,2013-07-17 20:17:00,
2013-07-17 15:22:00,87.9,69.7,30.00,SE,126,4.0,16.0,55,0.00,,CLR,0.00,875.00,VWS V14.00,2013-07-17 20:22:00,
2013-07-17 15:27:00,88.8,70.0,30.00,SE,144,4.0,16.0,54,0.00,,CLR,0.00,958.00,VWS V14.00,2013-07-17 20:27:00,
2013-07-17 15:32:00,89.3,69.9,30.00,SE,128,10.0,13.0,53,0.00,,SCT070,0.00,972.00,VWS V14.00,2013-07-17 20:32:00,
2013-07-17 15:37:00,89.5,69.6,30.00,SSE,161,13.0,16.0,52,0.00,,SCT070,0.00,935.00,VWS V14.00,2013-07-17 20:37:00,
2013-07-17 15:42:00,89.9,68.8,30.00,SE,140,10.0,16.0,50,0.00,,SCT070,0.00,921.00,VWS V14.00,2013-07-17 20:42:00,
2013-07-17 15:47:00,90.2,68.5,29.99,SE,134,11.0,16.0,49,0.00,,SCT070,0.00,933.00,VWS V14.00,2013-07-17 20:47:00,
2013-07-17 15:52:00,90.0,67.7,29.99,East,101,7.0,16.0,48,0.00,,SCT070,0.00,206.00,VWS V14.00,2013-07-17 20:52:00,
2013-07-17 15:57:00,90.0,67.7,30.00,South,178,12.0,24.0,48,0.00,,SCT070,0.00,902.00,VWS V14.00,2013-07-17 20:57:00,
2013-07-17 16:02:00,90.3,67.3,29.99,SE,143,9.0,12.0,47,0.00,,SCT070,0.00,831.00,VWS V14.00,2013-07-17 21:02:00,
2013-07-17 16:07:00,88.9,66.1,29.99,SSE,163,8.0,13.0,47,0.00,,SCT070,0.00,207.00,VWS V14.00,2013-07-17 21:07:00,
2013-07-17 16:12:00,88.9,66.7,29.99,South,175,9.0,15.0,48,0.00,,SCT070,0.00,179.00,VWS V14.00,2013-07-17 21:12:00,
2013-07-17 16:17:00,88.6,66.4,29.99,SSE,163,6.0,15.0,48,0.00,,SCT070,0.00,805.00,VWS V14.00,2013-07-17 21:17:00,
2013-07-17 16:22:00,89.5,66.6,29.99,SSE,148,6.0,15.0,47,0.00,,SCT070,0.00,139.00,VWS V14.00,2013-07-17 21:22:00,
2013-07-17 16:27:00,89.1,66.9,29.99,South,187,7.0,15.0,48,0.00,,SCT070,0.00,861.00,VWS V14.00,2013-07-17 21:27:00,
2013-07-17 16:32:00,90.2,68.5,29.99,SE,140,5.0,9.0,49,0.00,,CLR,0.00,875.00,VWS V14.00,2013-07-17 21:32:00,
2013-07-17 16:38:00,90.0,67.7,29.99,SSE,159,5.0,12.0,48,0.00,,CLR,0.00,248.00,VWS V14.00,2013-07-17 21:38:00,
2013-07-17 16:43:00,90.4,66.8,29.99,SSE,161,8.0,15.0,46,0.00,,CLR,0.00,847.00,VWS V14.00,2013-07-17 21:43:00,
2013-07-17 16:48:00,89.1,66.3,29.99,SE,146,8.0,15.0,47,0.00,,CLR,0.00,181.00,VWS V14.00,2013-07-17 21:48:00,
2013-07-17 16:53:00,88.3,66.7,29.99,SSE,157,5.0,15.0,49,0.00,,CLR,0.00,209.00,VWS V14.00,2013-07-17 21:53:00,
2013-07-17 16:58:00,88.1,67.1,29.99,South,184,8.0,15.0,50,0.00,,CLR,0.00,253.00,VWS V14.00,2013-07-17 21:58:00,
2013-07-17 17:03:00,88.0,67.6,29.98,SSE,166,7.0,9.0,51,0.00,,CLR,0.00,230.00,VWS V14.00,2013-07-17 22:03:00,
2013-07-17 17:08:00,88.1,67.7,29.98,South,170,6.0,10.0,51,0.00,,CLR,0.00,209.00,VWS V14.00,2013-07-17 22:08:00,
2013-07-17 17:13:00,87.7,67.9,29.98,SSE,163,5.0,10.0,52,0.00,,CLR,0.00,155.00,VWS V14.00,2013-07-17 22:13:00,
2013-07-17 17:18:00,87.8,68.6,29.98,SE,127,6.0,10.0,53,0.00,,CLR,0.00,165.00,VWS V14.00,2013-07-17 22:18:00,
2013-07-17 17:23:00,88.2,67.2,29.98,SSE,162,8.0,12.0,50,0.00,,CLR,0.00,148.00,VWS V14.00,2013-07-17 22:23:00,
2013-07-17 17:28:00,89.0,68.0,29.97,SSE,153,12.0,14.0,50,0.00,,CLR,0.00,673.00,VWS V14.00,2013-07-17 22:28:00,
2013-07-17 17:33:00,89.9,67.0,29.97,South,177,11.0,13.0,47,0.00,,CLR,0.00,589.00,VWS V14.00,2013-07-17 22:33:00,
2013-07-17 17:38:00,88.8,67.2,29.97,SSE,159,6.0,13.0,49,0.00,,CLR,0.00,575.00,VWS V14.00,2013-07-17 22:38:00,
2013-07-17 17:43:00,89.3,68.2,29.97,South,185,8.0,15.0,50,0.00,,CLR,0.00,605.00,VWS V14.00,2013-07-17 22:43:00,
2013-07-17 17:48:00,89.3,67.7,29.97,SSE,160,5.0,17.0,49,0.00,,CLR,0.00,570.00,VWS V14.00,2013-07-17 22:48:00,
2013-07-17 17:53:00,89.8,68.7,29.97,SSE,162,8.0,17.0,50,0.00,,CLR,0.00,554.00,VWS V14.00,2013-07-17 22:53:00,
2013-07-17 17:58:00,89.9,68.2,29.97,SSE,153,6.0,17.0,49,0.00,,CLR,0.00,536.00,VWS V14.00,2013-07-17 22:58:00,
2013-07-17 18:03:00,90.1,67.2,29.97,SSE,155,7.0,10.0,47,0.00,,CLR,0.00,527.00,VWS V14.00,2013-07-17 23:03:00,
2013-07-17 18:08:00,89.8,66.9,29.97,SE,146,11.0,16.0,47,0.00,,CLR,0.00,524.00,VWS V14.00,2013-07-17 23:08:00,
2013-07-17 18:13:00,89.8,66.9,29.97,SE,146,5.0,16.0,47,0.00,,CLR,0.00,517.00,VWS V14.00,2013-07-17 23:13:00,
2013-07-17 18:18:00,90.1,67.2,29.96,SSE,150,7.0,16.0,47,0.00,,CLR,0.00,504.00,VWS V14.00,2013-07-17 23:18:00,
2013-07-17 18:23:00,90.2,66.6,29.96,SSW,193,9.0,16.0,46,0.00,,CLR,0.00,480.00,VWS V14.00,2013-07-17 23:23:00,
2013-07-17 18:28:00,90.2,67.3,29.96,SSE,148,9.0,16.0,47,0.00,,CLR,0.00,381.00,VWS V14.00,2013-07-17 23:28:00,
2013-07-17 18:33:00,90.1,67.2,29.96,SSE,165,8.0,10.0,47,0.00,,CLR,0.00,454.00,VWS V14.00,2013-07-17 23:33:00,
2013-07-17 18:38:00,90.1,65.9,29.95,South,191,9.0,13.0,45,0.00,,CLR,0.00,229.00,VWS V14.00,2013-07-17 23:38:00,
2013-07-17 18:43:00,90.0,65.8,29.95,South,181,5.0,13.0,45,0.00,,CLR,0.00,309.00,VWS V14.00,2013-07-17 23:43:00,
2013-07-17 18:48:00,90.1,65.9,29.95,South,183,7.0,13.0,45,0.00,,CLR,0.00,362.00,VWS V14.00,2013-07-17 23:48:00,
2013-07-17 18:53:00,90.2,66.6,29.95,South,177,8.0,13.0,46,0.00,,CLR,0.00,367.00,VWS V14.00,2013-07-17 23:53:00,
2013-07-17 18:58:00,90.0,65.8,29.95,SSE,163,4.0,13.0,45,0.00,,CLR,0.00,367.00,VWS V14.00,2013-07-17 23:58:00,
2013-07-17 19:03:00,89.8,65.6,29.94,SSE,160,8.0,11.0,45,0.00,,CLR,0.00,352.00,VWS V14.00,2013-07-18 00:03:00,
2013-07-17 19:09:00,89.6,66.7,29.94,SE,142,5.0,11.0,47,0.00,,CLR,0.00,336.00,VWS V14.00,2013-07-18 00:09:00,
2013-07-17 19:14:00,89.2,66.3,29.94,SSE,153,11.0,12.0,47,0.00,,CLR,0.00,292.00,VWS V14.00,2013-07-18 00:14:00,
2013-07-17 19:19:00,89.0,66.8,29.94,SE,141,6.0,13.0,48,0.00,,CLR,0.00,330.00,VWS V14.00,2013-07-18 00:19:00,
2013-07-17 19:24:00,88.9,66.7,29.94,SSE,155,9.0,13.0,48,0.00,,CLR,0.00,330.00,VWS V14.00,2013-07-18 00:24:00,
2013-07-17 19:29:00,88.7,66.5,29.94,SSE,155,5.0,13.0,48,0.00,,CLR,0.00,323.00,VWS V14.00,2013-07-18 00:29:00,
2013-07-17 19:34:00,88.6,67.0,29.94,SE,146,6.0,9.0,49,0.00,,CLR,0.00,91.00,VWS V14.00,2013-07-18 00:34:00,
2013-07-17 19:39:00,87.7,66.2,29.94,SSE,151,4.0,10.0,49,0.00,,CLR,0.00,74.00,VWS V14.00,2013-07-18 00:39:00,
2013-07-17 19:44:00,87.0,66.7,29.94,SSE,148,8.0,10.0,51,0.00,,CLR,0.00,62.00,VWS V14.00,2013-07-18 00:44:00,
2013-07-17 19:49:00,87.0,66.7,29.94,SE,142,5.0,10.0,51,0.00,,CLR,0.00,216.00,VWS V14.00,2013-07-18 00:49:00,
2013-07-17 19:54:00,87.1,67.4,29.94,SE,136,6.0,10.0,52,0.00,,CLR,0.00,239.00,VWS V14.00,2013-07-18 00:54:00,
2013-07-17 19:59:00,87.2,67.4,29.93,SE,140,6.0,10.0,52,0.00,,CLR,0.00,213.00,VWS V14.00,2013-07-18 00:59:00,
2013-07-17 20:04:00,87.1,67.4,29.93,SE,138,7.0,9.0,52,0.00,,CLR,0.00,151.00,VWS V14.00,2013-07-18 01:04:00,
2013-07-17 20:09:00,86.8,68.2,29.93,SE,138,7.0,9.0,54,0.00,,CLR,0.00,153.00,VWS V14.00,2013-07-18 01:09:00,
2013-07-17 20:14:00,86.6,68.0,29.93,SE,134,5.0,11.0,54,0.00,,CLR,0.00,127.00,VWS V14.00,2013-07-18 01:14:00,
2013-07-17 20:19:00,86.3,67.7,29.93,SE,134,6.0,11.0,54,0.00,,CLR,0.00,107.00,VWS V14.00,2013-07-18 01:19:00,
2013-07-17 20:24:00,86.1,67.0,29.93,SE,127,6.0,11.0,53,0.00,,CLR,0.00,91.00,VWS V14.00,2013-07-18 01:24:00,
2013-07-17 20:29:00,86.0,66.3,29.92,ESE,123,8.0,11.0,52,0.00,,CLR,0.00,88.00,VWS V14.00,2013-07-18 01:29:00,
2013-07-17 20:34:00,85.9,66.8,29.92,ESE,121,5.0,10.0,53,0.00,,CLR,0.00,79.00,VWS V14.00,2013-07-18 01:34:00,
2013-07-17 20:39:00,85.8,66.7,29.92,ESE,117,7.0,10.0,53,0.00,,CLR,0.00,74.00,VWS V14.00,2013-07-18 01:39:00,
2013-07-17 20:44:00,85.5,67.0,29.92,ESE,117,4.0,10.0,54,0.00,,CLR,0.00,37.00,VWS V14.00,2013-07-18 01:44:00,
2013-07-17 20:49:00,85.0,67.0,29.92,ESE,115,4.0,10.0,55,0.00,,CLR,0.00,32.00,VWS V14.00,2013-07-18 01:49:00,
2013-07-17 20:54:00,84.5,67.1,29.92,ESE,107,4.0,10.0,56,0.00,,CLR,0.00,28.00,VWS V14.00,2013-07-18 01:54:00,
2013-07-17 20:59:00,84.2,67.3,29.93,ESE,103,5.0,10.0,57,0.00,,CLR,0.00,25.00,VWS V14.00,2013-07-18 01:59:00,
2013-07-17 21:04:00,83.6,68.3,29.93,ENE,69,9.0,12.0,60,0.00,,CLR,0.00,18.00,VWS V14.00,2013-07-18 02:04:00,
2013-07-17 21:09:00,82.3,69.4,29.93,ENE,74,8.0,16.0,65,0.00,,CLR,0.00,14.00,VWS V14.00,2013-07-18 02:09:00,
2013-07-17 21:14:00,81.1,70.0,29.93,ENE,62,8.0,16.0,69,0.00,,CLR,0.00,9.00,VWS V14.00,2013-07-18 02:14:00,
2013-07-17 21:19:00,80.2,69.9,29.93,East,79,13.0,16.0,71,0.00,,CLR,0.00,7.00,VWS V14.00,2013-07-18 02:19:00,
2013-07-17 21:25:00,79.7,70.3,29.93,East,92,10.0,16.0,73,0.00,,CLR,0.00,5.00,VWS V14.00,2013-07-18 02:25:00,
2013-07-17 21:30:00,79.5,70.5,29.93,ENE,78,11.0,11.0,74,0.00,,CLR,0.00,5.00,VWS V14.00,2013-07-18 02:30:00,
2013-07-17 21:35:00,79.4,70.4,29.93,ENE,74,10.0,15.0,74,0.00,,CLR,0.00,0.00,VWS V14.00,2013-07-18 02:35:00,
2013-07-17 21:40:00,79.1,70.5,29.93,NE,55,13.0,15.0,75,0.00,,CLR,0.00,0.00,VWS V14.00,2013-07-18 02:40:00,
2013-07-17 21:45:00,78.6,70.4,29.92,ENE,76,10.0,19.0,76,0.00,,CLR,0.00,0.00,VWS V14.00,2013-07-18 02:45:00,
2013-07-17 21:50:00,78.2,70.4,29.92,ENE,73,8.0,19.0,77,0.00,,CLR,0.00,0.00,VWS V14.00,2013-07-18 02:50:00,
2013-07-17 21:55:00,77.9,70.5,29.92,ENE,77,16.0,19.0,78,0.00,,CLR,0.00,0.00,VWS V14.00,2013-07-18 02:55:00,
2013-07-17 22:00:00,77.8,70.4,29.92,ENE,78,15.0,15.0,78,0.00,,CLR,0.00,0.00,VWS V14.00,2013-07-18 03:00:00,
2013-07-17 22:05:00,77.7,70.7,29.92,East,85,10.0,17.0,79,0.00,,CLR,0.00,0.00,VWS V14.00,2013-07-18 03:05:00,
2013-07-17 22:10:00,77.4,70.4,29.93,ENE,74,12.0,17.0,79,0.00,,CLR,0.00,0.00,VWS V14.00,2013-07-18 03:10:00,
2013-07-17 22:15:00,76.9,70.6,29.92,ENE,78,9.0,18.0,81,0.00,,CLR,0.00,0.00,VWS V14.00,2013-07-18 03:15:00,
2013-07-17 22:20:00,76.6,70.7,29.92,East,88,15.0,18.0,82,0.00,,CLR,0.00,0.00,VWS V14.00,2013-07-18 03:20:00,
2013-07-17 22:25:00,76.5,70.6,29.92,East,101,13.0,18.0,82,0.00,,CLR,0.00,0.00,VWS V14.00,2013-07-18 03:25:00,
2013-07-17 22:30:00,76.5,70.6,29.92,East,80,9.0,16.0,82,0.00,,CLR,0.00,0.00,VWS V14.00,2013-07-18 03:30:00,
2013-07-17 22:35:00,76.3,70.4,29.92,East,80,11.0,16.0,82,0.00,,CLR,0.00,0.00,VWS V14.00,2013-07-18 03:35:00,
2013-07-17 22:40:00,75.9,70.0,29.92,ENE,64,13.0,16.0,82,0.00,,CLR,0.00,0.00,VWS V14.00,2013-07-18 03:40:00,
2013-07-17 22:45:00,75.6,70.1,29.92,East,93,17.0,17.0,83,0.00,,BKN100,0.00,0.00,VWS V14.00,2013-07-18 03:45:00,
2013-07-17 22:50:00,75.3,69.8,29.92,East,79,18.0,18.0,83,0.00,,BKN100,0.00,0.00,VWS V14.00,2013-07-18 03:50:00,
2013-07-17 22:55:00,75.1,69.6,29.92,East,90,10.0,18.0,83,0.00,,BKN100,0.00,0.00,VWS V14.00,2013-07-18 03:55:00,
2013-07-17 23:00:00,74.9,69.4,29.92,ENE,74,14.0,14.0,83,0.00,,BKN100,0.00,0.00,VWS V14.00,2013-07-18 04:00:00,
2013-07-17 23:01:00,74.8,69.3,29.92,East,87,13.0,14.0,83,0.00,,BKN100,0.00,0.00,VWS V14.00,2013-07-18 04:01:00,
2013-07-17 23:02:00,74.8,69.3,29.92,East,80,14.0,16.0,83,0.00,,BKN100,0.00,0.00,VWS V14.00,2013-07-18 04:02:00,
2013-07-17 23:04:00,74.6,69.1,29.92,East,80,11.0,16.0,83,0.00,,BKN100,0.00,0.00,VWS V14.00,2013-07-18 04:04:00,
2013-07-17 23:06:00,74.5,69.0,29.92,East,83,9.0,16.0,83,0.00,,BKN100,0.00,0.00,VWS V14.00,2013-07-18 04:06:00,
2013-07-17 23:08:00,74.4,68.9,29.91,ENE,78,13.0,16.0,83,0.00,,BKN100,0.00,0.00,VWS V14.00,2013-07-18 04:08:00,
2013-07-17 23:13:00,74.1,68.6,29.91,ENE,73,9.0,17.0,83,0.00,,BKN100,0.00,0.00,VWS V14.00,2013-07-18 04:13:00,
2013-07-17 23:18:00,73.9,68.4,29.91,East,79,11.0,17.0,83,0.00,,BKN100,0.00,0.00,VWS V14.00,2013-07-18 04:18:00,
2013-07-17 23:23:00,73.6,68.1,29.91,ENE,76,7.0,17.0,83,0.00,,BKN100,0.00,0.00,VWS V14.00,2013-07-18 04:23:00,
2013-07-17 23:28:00,73.3,68.2,29.91,ENE,78,12.0,17.0,84,0.00,,BKN100,0.00,0.00,VWS V14.00,2013-07-18 04:28:00,
2013-07-17 23:33:00,73.0,68.2,29.91,ENE,63,16.0,16.0,85,0.00,,BKN100,0.00,0.00,VWS V14.00,2013-07-18 04:33:00,
2013-07-17 23:38:00,72.8,68.0,29.91,East,91,9.0,16.0,85,0.00,,BKN100,0.00,0.00,VWS V14.00,2013-07-18 04:38:00,
2013-07-17 23:43:00,72.7,67.9,29.91,ENE,76,5.0,16.0,85,0.00,,CLR,0.00,0.00,VWS V14.00,2013-07-18 04:43:00,
2013-07-17 23:48:00,72.7,67.9,29.91,East,80,10.0,16.0,85,0.00,,CLR,0.00,0.00,VWS V14.00,2013-07-18 04:48:00,
2013-07-17 23:53:00,72.6,68.2,29.90,ENE,66,9.0,16.0,86,0.00,,CLR,0.00,0.00,VWS V14.00,2013-07-18 04:53:00,
2013-07-17 23:59:00,72.4,68.0,29.90,East,79,10.0,16.0,86,0.00,,CLR,0.00,0.00,VWS V14.00,2013-07-18 04:59:00,